Time;durP1;ratioP1;P1;durP2;ratioP2;P2;SDS_P1;SDS_P2;PMS_P1;PMS_P2;Temp;Humidity;BMP_temperature;BMP_pressure;BME280_temperature;BME280_humidity;BME280_pressure;Samples;Min_cycle;Max_cycle;Signal;HPM_P1;HPM_P2
2022/03/24 00:03:56;;;;;;;59.33;27.85;;;;;;;6.03;86.31;101874.53;8273822;28;20100;-64
2022/03/24 00:07:57;;;;;;;63.53;28.65;;;;;;;5.94;87.25;101877.66;8280588;28;20037;-64
2022/03/24 00:11:58;;;;;;;59.35;28.27;;;;;;;5.86;87.84;101878.06;8279351;28;20064;-64
2022/03/24 00:15:59;;;;;;;59.28;27.20;;;;;;;5.81;87.94;101873.84;8269056;28;20034;-64
2022/03/24 00:20:00;;;;;;;58.67;26.20;;;;;;;5.94;86.93;101858.88;8279753;28;20061;-64
2022/03/24 00:24:01;;;;;;;59.92;26.67;;;;;;;5.85;87.65;101868.28;8288800;28;20141;-64
2022/03/24 00:28:02;;;;;;;58.15;27.25;;;;;;;6.02;86.80;101859.38;8261324;28;20039;-64
2022/03/24 00:32:02;;;;;;;62.47;26.20;;;;;;;5.91;87.06;101859.03;8261044;28;20038;-64
2022/03/24 00:36:03;;;;;;;61.35;27.27;;;;;;;5.95;86.74;101855.28;8255680;28;20039;-64
2022/03/24 00:40:07;;;;;;;60.47;27.85;;;;;;;5.96;86.98;101848.94;8257192;28;20046;-64
2022/03/24 00:44:07;;;;;;;59.83;27.70;;;;;;;5.75;86.99;101847.31;8235378;28;20042;-64
2022/03/24 00:48:08;;;;;;;58.85;27.50;;;;;;;5.88;87.23;101846.66;8252304;28;20038;-64
2022/03/24 00:52:10;;;;;;;58.92;27.27;;;;;;;5.77;87.02;101851.66;8252047;28;20471;-64
2022/03/24 00:56:11;;;;;;;56.70;27.02;;;;;;;5.72;87.94;101848.34;8267165;28;20037;-64
2022/03/24 01:00:15;;;;;;;58.45;25.42;;;;;;;5.55;87.43;101844.78;8279622;28;20513;-64
2022/03/24 01:04:16;;;;;;;59.70;27.45;;;;;;;5.42;88.89;101840.94;8257025;28;20530;-64
2022/03/24 01:08:18;;;;;;;57.55;25.75;;;;;;;5.29;89.71;101856.78;8255941;28;20544;-64
2022/03/24 01:12:18;;;;;;;61.97;26.45;;;;;;;5.26;89.84;101854.25;8250409;28;20038;-64
2022/03/24 01:16:19;;;;;;;59.22;26.33;;;;;;;5.02;90.75;101841.16;8254225;28;20034;-64
2022/03/24 01:20:21;;;;;;;55.30;25.50;;;;;;;5.13;90.64;101844.19;8260489;28;20053;-64
2022/03/24 01:24:21;;;;;;;60.85;27.17;;;;;;;5.03;91.22;101842.91;8286971;28;20440;-64
2022/03/24 01:28:22;;;;;;;63.85;27.40;;;;;;;5.07;91.15;101831.09;8256939;28;20061;-64
2022/03/24 01:32:26;;;;;;;60.83;28.25;;;;;;;5.25;90.60;101836.41;8272826;28;20108;-64
2022/03/24 01:36:27;;;;;;;54.67;26.35;;;;;;;5.01;89.56;101840.31;8286479;28;20044;-64
2022/03/24 01:40:27;;;;;;;58.40;26.45;;;;;;;4.57;91.43;101844.19;8286533;28;20124;-64
2022/03/24 01:44:28;;;;;;;60.40;27.95;;;;;;;4.61;93.92;101836.88;8287004;28;20112;-64
2022/03/24 01:48:29;;;;;;;60.15;25.77;;;;;;;4.73;93.31;101830.97;8254086;28;20534;-64
2022/03/24 01:52:29;;;;;;;58.60;26.00;;;;;;;4.91;92.64;101835.47;8276311;28;20151;-64
2022/03/24 01:56:29;;;;;;;67.35;26.45;;;;;;;4.81;92.60;101828.78;8286116;28;20117;-64
2022/03/24 02:00:31;;;;;;;61.55;26.52;;;;;;;4.86;92.57;101824.97;8277161;28;20053;-64
2022/03/24 02:04:35;;;;;;;57.60;25.42;;;;;;;4.80;92.59;101821.69;8262331;28;20061;-64
2022/03/24 02:08:35;;;;;;;53.78;25.23;;;;;;;4.79;93.07;101831.53;8237064;28;20039;-64
2022/03/24 02:12:36;;;;;;;66.43;26.52;;;;;;;4.79;92.22;101819.97;8245594;28;20035;-64
2022/03/24 02:16:39;;;;;;;53.13;23.75;;;;;;;4.64;93.41;101815.31;8265709;28;20030;-64
2022/03/24 02:20:40;;;;;;;59.15;26.02;;;;;;;4.61;93.85;101826.16;8291188;28;20038;-64
2022/03/24 02:24:42;;;;;;;62.58;26.33;;;;;;;4.37;94.42;101816.56;8251941;28;20050;-64
2022/03/24 02:28:44;;;;;;;63.78;26.17;;;;;;;4.72;93.54;101808.66;8248334;28;20047;-64
2022/03/24 02:32:45;;;;;;;64.03;25.48;;;;;;;4.35;95.09;101815.78;8243120;28;20039;-64
2022/03/24 02:36:45;;;;;;;56.95;25.42;;;;;;;3.97;96.37;101821.03;8239490;28;20533;-64
2022/03/24 02:40:49;;;;;;;55.78;24.38;;;;;;;3.91;96.68;101823.13;8259184;28;20070;-64
2022/03/24 02:44:53;;;;;;;61.88;26.30;;;;;;;3.89;98.45;101820.50;8281787;28;20033;-64
2022/03/24 02:48:53;;;;;;;57.45;25.83;;;;;;;4.12;97.54;101821.31;8260716;28;20106;-64
2022/03/24 02:52:54;;;;;;;54.38;26.20;;;;;;;4.15;96.12;101818.50;8287688;28;20030;-64
2022/03/24 02:56:54;;;;;;;60.92;25.60;;;;;;;3.68;96.63;101818.75;8249667;28;20035;-64
2022/03/24 03:00:55;;;;;;;48.28;22.95;;;;;;;3.95;95.61;101825.59;8259053;28;20041;-64
2022/03/24 03:04:55;;;;;;;55.30;24.65;;;;;;;3.95;96.51;101822.03;8281778;28;20049;-64
2022/03/24 03:08:56;;;;;;;53.05;25.30;;;;;;;3.71;96.81;101826.66;8290142;28;20045;-64
2022/03/24 03:12:57;;;;;;;55.22;24.65;;;;;;;3.74;97.65;101825.63;8289886;28;20566;-64
2022/03/24 03:16:59;;;;;;;62.80;25.98;;;;;;;3.85;96.44;101823.38;8273640;28;20147;-64
2022/03/24 03:20:59;;;;;;;58.72;24.70;;;;;;;3.62;96.66;101827.03;8275276;28;20532;-64
2022/03/24 03:25:00;;;;;;;57.33;25.92;;;;;;;3.98;97.08;101840.63;8290579;28;20525;-64
2022/03/24 03:29:00;;;;;;;55.78;24.25;;;;;;;3.70;95.86;101824.91;8280168;28;20042;-64
2022/03/24 03:33:01;;;;;;;55.58;24.92;;;;;;;3.73;96.97;101830.09;8263326;28;20525;-64
2022/03/24 03:37:01;;;;;;;59.33;25.80;;;;;;;3.70;96.67;101840.97;8290379;28;20045;-64
2022/03/24 03:41:02;;;;;;;51.90;23.52;;;;;;;3.50;96.01;101835.56;8288395;28;20050;-64
2022/03/24 03:45:02;;;;;;;58.15;26.08;;;;;;;3.50;96.65;101838.25;8286029;28;20046;-64
2022/03/24 03:49:04;;;;;;;58.53;25.27;;;;;;;3.53;96.82;101822.06;8249476;28;20057;-64
2022/03/24 03:53:04;;;;;;;52.45;24.65;;;;;;;3.29;96.97;101836.44;8269148;28;20477;-64
2022/03/24 03:57:05;;;;;;;57.40;25.00;;;;;;;3.30;96.75;101835.50;8289305;28;20740;-64
2022/03/24 04:01:07;;;;;;;57.10;25.40;;;;;;;3.54;97.26;101829.16;8275568;28;20414;-64
2022/03/24 04:05:07;;;;;;;59.03;24.92;;;;;;;3.30;97.32;101837.34;8257949;28;20039;-64
2022/03/24 04:09:08;;;;;;;49.25;23.48;;;;;;;3.61;97.48;101836.00;8258767;28;20092;-64
2022/03/24 04:13:10;;;;;;;61.65;26.00;;;;;;;3.29;98.08;101823.09;8256956;28;20042;-64
2022/03/24 04:17:11;;;;;;;56.92;24.80;;;;;;;3.09;98.29;101825.72;8256465;28;20042;-64
2022/03/24 04:21:12;;;;;;;60.05;25.83;;;;;;;2.92;98.36;101819.28;8275168;28;20084;-64
2022/03/24 04:25:12;;;;;;;57.75;25.98;;;;;;;3.05;99.36;101829.41;8288662;28;20112;-64
2022/03/24 04:29:13;;;;;;;63.53;25.98;;;;;;;3.07;99.72;101824.91;8268081;28;20041;-64
2022/03/24 04:33:13;;;;;;;64.15;27.52;;;;;;;3.05;100.00;101829.41;8259535;28;20057;-64
2022/03/24 04:37:15;;;;;;;61.60;25.70;;;;;;;2.96;99.58;101827.13;8256077;28;20108;-64
2022/03/24 04:41:15;;;;;;;59.60;26.27;;;;;;;3.11;100.00;101828.31;8274636;28;20536;-64
2022/03/24 04:45:17;;;;;;;63.15;27.90;;;;;;;3.12;99.75;101833.63;8283962;28;20493;-64
2022/03/24 04:49:18;;;;;;;60.90;26.35;;;;;;;2.91;98.96;101834.47;8250663;28;20581;-64
2022/03/24 04:53:18;;;;;;;63.97;27.60;;;;;;;3.15;100.00;101830.81;8247940;28;20401;-64
2022/03/24 04:57:19;;;;;;;71.20;28.13;;;;;;;3.33;98.87;101824.69;8261701;28;20034;-64
2022/03/24 05:01:19;;;;;;;58.65;26.08;;;;;;;3.20;98.43;101827.97;8250242;28;20474;-64
2022/03/24 05:05:20;;;;;;;75.53;30.50;;;;;;;3.36;99.17;101829.91;8259404;28;20064;-64
2022/03/24 05:09:20;;;;;;;73.05;28.15;;;;;;;3.52;97.93;101831.03;8285768;28;20030;-64
2022/03/24 05:13:20;;;;;;;62.65;27.88;;;;;;;3.51;98.14;101839.13;8285990;28;20369;-64
2022/03/24 05:17:22;;;;;;;80.15;28.27;;;;;;;3.51;97.67;101834.63;8267402;28;20109;-64
2022/03/24 05:21:23;;;;;;;69.40;29.13;;;;;;;3.62;96.50;101839.53;8274529;28;20490;-65
2022/03/24 05:25:25;;;;;;;78.72;28.77;;;;;;;3.27;97.54;101850.81;8287084;28;20441;-65
2022/03/24 05:29:25;;;;;;;70.50;28.23;;;;;;;3.02;98.19;101848.25;8262721;28;20457;-65
2022/03/24 05:33:26;;;;;;;65.85;26.98;;;;;;;3.18;100.00;101856.53;8256147;28;20145;-65
2022/03/24 05:37:26;;;;;;;69.53;28.33;;;;;;;3.28;99.64;101853.44;8255052;28;20042;-65
2022/03/24 05:41:27;;;;;;;69.97;26.40;;;;;;;3.34;99.32;101853.19;8255451;28;20096;-65
2022/03/24 05:45:28;;;;;;;76.75;29.30;;;;;;;3.39;99.24;101851.16;8253946;28;20066;-65
2022/03/24 05:49:29;;;;;;;66.47;28.20;;;;;;;3.42;98.91;101856.38;8256707;28;20170;-65
2022/03/24 05:53:29;;;;;;;77.00;28.70;;;;;;;3.36;98.49;101851.28;8271807;28;20034;-65
2022/03/24 05:57:29;;;;;;;69.38;28.80;;;;;;;3.23;98.93;101850.06;8259176;28;20044;-65
2022/03/24 06:01:30;;;;;;;64.57;26.80;;;;;;;3.13;98.81;101846.03;8223819;28;20043;-65
2022/03/24 06:05:31;;;;;;;71.07;27.55;;;;;;;3.44;99.68;101848.31;8204939;28;20126;-65
2022/03/24 06:09:31;;;;;;;69.32;27.17;;;;;;;3.56;96.45;101848.69;8191253;28;20555;-65
2022/03/24 06:13:32;;;;;;;72.38;28.23;;;;;;;3.65;96.49;101853.66;8191485;28;20128;-65
2022/03/24 06:17:33;;;;;;;56.50;25.48;;;;;;;3.72;96.31;101860.47;8205673;28;20663;-65
2022/03/24 06:21:34;;;;;;;65.15;26.95;;;;;;;3.67;96.16;101857.13;8200489;28;20093;-65
2022/03/24 06:25:34;;;;;;;71.93;27.15;;;;;;;3.91;95.85;101855.22;8194367;28;20035;-65
2022/03/24 06:29:35;;;;;;;59.33;25.65;;;;;;;4.04;94.01;101862.66;8203201;28;20077;-65
2022/03/24 06:33:36;;;;;;;60.85;28.20;;;;;;;4.25;93.15;101859.97;8236655;28;20077;-65
2022/03/24 06:37:40;;;;;;;57.28;26.73;;;;;;;4.74;90.79;101864.84;8253134;28;20045;-65
2022/03/24 06:41:41;;;;;;;59.28;27.13;;;;;;;4.84;90.21;101868.81;8249536;28;20042;-64
2022/03/24 06:45:41;;;;;;;60.55;27.23;;;;;;;5.10;88.21;101864.00;8218945;28;20516;-64
2022/03/24 06:49:42;;;;;;;55.15;25.20;;;;;;;5.24;86.75;101858.81;8201150;28;20062;-64
2022/03/24 06:53:42;;;;;;;64.60;27.58;;;;;;;5.57;87.26;101858.97;8197076;28;20489;-64
2022/03/24 06:57:43;;;;;;;60.25;27.02;;;;;;;5.88;85.67;101870.81;8233539;28;20411;-64
2022/03/24 07:01:44;;;;;;;70.70;28.77;;;;;;;6.24;85.63;101867.16;8259000;28;20043;-64
2022/03/24 07:05:44;;;;;;;54.75;25.90;;;;;;;6.48;83.12;101865.88;8255909;28;20035;-64
2022/03/24 07:09:44;;;;;;;72.85;30.60;;;;;;;6.61;83.67;101878.56;8282511;28;20490;-64
2022/03/24 07:13:45;;;;;;;66.93;27.98;;;;;;;6.77;83.33;101876.78;8270694;28;20041;-64
2022/03/24 07:17:45;;;;;;;62.72;30.08;;;;;;;7.16;83.26;101869.22;8250290;28;20543;-64
2022/03/24 07:21:46;;;;;;;61.60;28.45;;;;;;;7.72;79.99;101866.81;8268067;28;20049;-64
2022/03/24 07:25:47;;;;;;;65.72;30.25;;;;;;;7.88;80.45;101875.75;8281071;28;20048;-64
2022/03/24 07:29:47;;;;;;;63.42;30.92;;;;;;;8.13;79.80;101872.47;8261428;28;20073;-64
2022/03/24 07:33:48;;;;;;;63.20;29.95;;;;;;;8.58;77.74;101875.09;8271480;28;20042;-64
2022/03/24 07:37:48;;;;;;;64.85;30.60;;;;;;;8.80;77.97;101874.59;8271360;28;20504;-64
2022/03/24 07:41:49;;;;;;;60.22;28.70;;;;;;;8.80;79.42;101880.88;8258298;28;20041;-64
2022/03/24 07:45:49;;;;;;;59.03;29.10;;;;;;;9.08;83.03;101875.47;8269334;28;20075;-64
2022/03/24 07:49:49;;;;;;;57.10;28.77;;;;;;;9.30;80.38;101880.38;8277830;28;20030;-64
2022/03/24 07:53:55;;;;;;;66.95;30.50;;;;;;;9.37;81.01;101881.69;8275015;28;20509;-64
2022/03/24 07:57:55;;;;;;;62.10;30.20;;;;;;;9.72;79.83;101877.53;8280359;28;20046;-64
2022/03/24 08:01:55;;;;;;;66.47;31.67;;;;;;;10.05;78.00;101886.06;8272401;28;20113;-64
2022/03/24 08:05:56;;;;;;;67.40;31.80;;;;;;;10.48;75.70;101884.88;8272639;28;20038;-64
2022/03/24 08:09:56;;;;;;;64.05;31.75;;;;;;;10.75;74.44;101893.78;8265413;28;20049;-64
2022/03/24 08:13:57;;;;;;;69.73;31.03;;;;;;;10.92;68.74;101892.59;8276410;28;20038;-64
2022/03/24 08:17:57;;;;;;;65.95;30.55;;;;;;;11.16;68.82;101891.69;8247239;28;20305;-64
2022/03/24 08:21:58;;;;;;;66.68;31.27;;;;;;;11.09;67.84;101903.94;8248721;28;20035;-64
2022/03/24 08:25:58;;;;;;;63.67;31.17;;;;;;;11.56;67.43;101898.63;8251295;28;20450;-64
2022/03/24 08:29:58;;;;;;;63.15;31.08;;;;;;;12.05;67.33;101892.28;8254376;28;20086;-64
2022/03/24 08:33:59;;;;;;;59.47;29.98;;;;;;;12.48;66.13;101888.00;8239596;28;20050;-64
2022/03/24 08:38:00;;;;;;;77.88;33.30;;;;;;;12.53;65.49;101896.66;8264396;28;20054;-64
2022/03/24 08:42:01;;;;;;;69.65;33.45;;;;;;;12.77;63.69;101894.69;8235015;28;20572;-64
2022/03/24 08:46:02;;;;;;;69.88;32.72;;;;;;;13.31;64.41;101901.19;8250895;28;20050;-64
2022/03/24 08:50:05;;;;;;;72.65;33.00;;;;;;;13.54;62.47;101897.44;8264430;28;20108;-64
2022/03/24 08:54:06;;;;;;;74.88;34.45;;;;;;;13.88;63.41;101896.41;8244084;28;20050;-64
2022/03/24 08:58:08;;;;;;;65.13;32.25;;;;;;;14.23;62.42;101901.56;8263426;28;20572;-64
2022/03/24 09:02:08;;;;;;;68.10;33.38;;;;;;;14.29;61.25;101896.50;8230350;28;20454;-64
2022/03/24 09:06:09;;;;;;;69.05;32.17;;;;;;;14.52;60.54;101892.66;8238484;28;20413;-64
2022/03/24 09:10:12;;;;;;;69.05;33.53;;;;;;;14.48;59.44;101904.81;8244504;28;20042;-64
2022/03/24 09:14:13;;;;;;;70.13;32.42;;;;;;;14.87;60.37;101901.38;8259415;28;20050;-64
2022/03/24 09:18:14;;;;;;;66.28;32.72;;;;;;;15.16;58.81;101899.66;8262987;28;20124;-64
2022/03/24 09:22:14;;;;;;;72.20;33.92;;;;;;;15.63;56.95;101904.47;8248816;28;20046;-64
2022/03/24 09:26:14;;;;;;;70.97;32.58;;;;;;;15.80;56.55;101905.66;8255663;28;20037;-64
2022/03/24 09:30:18;;;;;;;75.15;32.50;;;;;;;16.92;53.62;101898.59;8245178;28;20274;-64
2022/03/24 09:34:18;;;;;;;71.25;33.33;;;;;;;18.61;50.30;101891.44;8253747;28;20132;-64
2022/03/24 09:38:20;;;;;;;73.20;30.23;;;;;;;20.05;45.46;101901.47;8229334;28;20125;-64
2022/03/24 09:42:21;;;;;;;61.90;30.38;;;;;;;21.51;44.00;101899.38;8249278;28;20073;-64
2022/03/24 09:46:23;;;;;;;63.50;31.30;;;;;;;22.27;41.13;101899.50;8263886;28;20046;-64
2022/03/24 09:50:25;;;;;;;63.72;31.70;;;;;;;22.77;40.22;101910.84;8258002;28;20049;-65
2022/03/24 09:54:25;;;;;;;67.20;31.08;;;;;;;22.89;40.65;101909.38;8250846;28;20038;-65
2022/03/24 09:58:26;;;;;;;65.50;30.95;;;;;;;23.46;39.96;101912.41;8249244;28;20046;-65
2022/03/24 10:02:28;;;;;;;61.20;31.85;;;;;;;24.02;37.60;101914.47;8258423;28;20418;-65
2022/03/24 10:06:29;;;;;;;62.45;30.63;;;;;;;23.70;37.97;101903.84;8249034;28;20125;-65
2022/03/24 10:10:31;;;;;;;61.42;31.73;;;;;;;24.59;35.86;101901.50;8249374;28;20042;-65
2022/03/24 10:14:32;;;;;;;61.53;31.15;;;;;;;23.76;37.93;101900.31;8250965;28;20109;-65
2022/03/24 10:18:32;;;;;;;55.05;31.05;;;;;;;24.83;36.96;101895.59;8252047;28;20498;-65
2022/03/24 10:22:33;;;;;;;41.67;25.88;;;;;;;24.63;33.65;101886.22;8249156;28;20058;-65
2022/03/24 10:27:00;;;;;;;53.67;27.88;;;;;;;25.54;34.89;101891.63;8229115;28;20042;-65
2022/03/24 10:31:02;;;;;;;44.17;26.58;;;;;;;24.90;33.14;101882.66;8247460;28;20137;-65
2022/03/24 10:35:13;;;;;;;46.78;26.60;;;;;;;25.06;33.70;101881.50;8237690;28;20047;-65
2022/03/24 10:39:14;;;;;;;38.55;24.33;;;;;;;24.83;33.51;101876.22;8241109;28;20154;-65
2022/03/24 10:43:22;;;;;;;43.00;26.27;;;;;;;24.24;34.02;101885.84;8262743;28;20041;-65
2022/03/24 10:47:52;;;;;;;38.72;23.88;;;;;;;24.20;33.63;101884.50;8246091;28;20271;-65
2022/03/24 10:51:53;;;;;;;45.40;27.00;;;;;;;24.31;35.88;101872.94;8250288;28;20482;-65
2022/03/24 10:56:03;;;;;;;50.17;26.38;;;;;;;25.27;35.27;101871.22;8258698;28;20429;-65
2022/03/24 11:00:04;;;;;;;48.55;25.20;;;;;;;25.68;33.10;101877.63;8236458;28;20158;-65
2022/03/24 11:04:05;;;;;;;43.00;26.40;;;;;;;25.95;34.81;101871.16;8239880;28;20050;-65
2022/03/24 11:08:08;;;;;;;49.20;24.73;;;;;;;25.47;33.99;101875.00;8238236;28;20423;-65
2022/03/24 11:16:36;;;;;;;38.80;23.33;;;;;;;25.90;36.14;101870.94;8340505;27;20410;-64
2022/03/24 11:20:38;;;;;;;43.63;20.65;;;;;;;26.10;32.81;101866.31;8301166;28;20049;-64
2022/03/24 11:24:38;;;;;;;46.35;24.80;;;;;;;25.08;34.16;101869.16;8292058;28;20140;-64
2022/03/24 11:28:39;;;;;;;47.97;21.23;;;;;;;25.42;35.08;101858.13;8281185;28;20500;-64
2022/03/24 11:32:42;;;;;;;38.97;19.83;;;;;;;25.99;35.68;101863.31;8299007;28;20290;-64
2022/03/24 11:36:42;;;;;;;46.47;21.15;;;;;;;26.23;32.72;101855.25;8302541;28;20379;-64
2022/03/24 11:40:43;;;;;;;33.40;16.42;;;;;;;25.30;32.77;101845.88;8271617;28;20049;-64
2022/03/24 11:44:52;;;;;;;29.73;13.70;;;;;;;26.79;32.16;101851.09;8290557;28;20586;-64
2022/03/24 11:49:13;;;;;;;33.22;15.90;;;;;;;26.74;31.51;101847.22;8289644;28;20483;-64
2022/03/24 11:57:31;;;;;;;44.08;20.42;;;;;;;26.97;34.11;101833.78;8335604;27;20310;-63
2022/03/24 12:01:35;;;;;;;41.05;17.77;;;;;;;25.41;31.90;101831.50;8297246;28;20043;-63
2022/03/24 12:05:55;;;;;;;30.77;13.47;;;;;;;26.42;31.78;101829.50;8292674;28;20046;-63
2022/03/24 12:10:01;;;;;;;35.95;17.42;;;;;;;26.48;32.79;101822.22;8300311;28;20449;-63
2022/03/24 12:18:20;;;;;;;32.20;15.05;;;;;;;27.38;32.96;101822.38;8277364;27;20385;-63
2022/03/24 12:22:32;;;;;;;31.37;15.00;;;;;;;27.80;31.29;101810.66;8264875;28;20073;-64
2022/03/24 12:26:38;;;;;;;33.85;17.52;;;;;;;27.82;31.66;101811.28;8271823;28;20293;-64
2022/03/24 12:31:01;;;;;;;35.65;16.65;;;;;;;27.94;31.11;101798.41;8259163;28;20089;-64
2022/03/24 12:35:03;;;;;;;41.28;17.90;;;;;;;27.93;29.57;101793.94;8263431;28;20054;-64
2022/03/24 12:39:04;;;;;;;34.95;15.60;;;;;;;28.13;30.05;101794.66;8265637;28;20049;-64
2022/03/24 12:43:04;;;;;;;37.72;17.98;;;;;;;27.92;31.44;101786.66;8262408;28;20046;-65
2022/03/24 12:47:05;;;;;;;36.67;16.30;;;;;;;27.05;31.64;101782.72;8257516;28;20529;-64
2022/03/24 12:51:16;;;;;;;33.10;15.90;;;;;;;25.80;32.97;101786.47;8259956;28;20286;-64
2022/03/24 12:55:26;;;;;;;32.15;15.73;;;;;;;22.37;34.91;101776.94;8252626;28;20100;-64
2022/03/24 12:59:26;;;;;;;39.95;15.18;;;;;;;22.15;37.34;101775.09;8243900;28;20046;-64
2022/03/24 13:03:27;;;;;;;36.15;14.77;;;;;;;21.63;37.00;101771.31;8255074;28;20109;-64
2022/03/24 13:07:28;;;;;;;37.60;16.42;;;;;;;20.91;37.22;101771.63;8258966;28;20035;-64
2022/03/24 13:11:29;;;;;;;35.55;14.40;;;;;;;20.83;38.58;101766.16;8260039;28;20045;-65
2022/03/24 13:15:37;;;;;;;40.05;15.23;;;;;;;20.48;39.26;101761.06;8258790;28;20046;-65
2022/03/24 13:19:40;;;;;;;42.28;14.65;;;;;;;20.22;40.60;101763.19;8264983;28;20128;-65
2022/03/24 13:23:41;;;;;;;31.42;14.88;;;;;;;19.93;39.82;101762.78;8254033;28;20046;-65
2022/03/24 13:27:44;;;;;;;33.42;14.43;;;;;;;19.91;39.44;101762.13;8249274;28;20093;-65
2022/03/24 13:31:45;;;;;;;42.25;14.98;;;;;;;19.43;38.87;101752.75;8250018;28;20052;-65
2022/03/24 13:35:48;;;;;;;33.50;13.60;;;;;;;19.26;39.73;101761.09;8232943;28;20050;-65
2022/03/24 13:39:54;;;;;;;38.33;14.88;;;;;;;19.01;39.08;101756.53;8235920;28;20674;-65
2022/03/24 13:43:55;;;;;;;36.20;15.27;;;;;;;18.78;39.48;101760.88;8229137;28;20264;-65
2022/03/24 13:48:00;;;;;;;37.80;14.02;;;;;;;19.05;41.04;101747.81;8233358;28;20050;-63
2022/03/24 13:52:01;;;;;;;37.05;15.27;;;;;;;19.00;40.49;101744.69;8232941;28;20048;-66
2022/03/24 13:56:10;;;;;;;29.90;14.48;;;;;;;19.26;41.68;101740.06;8236477;28;20129;-66
2022/03/24 14:00:12;;;;;;;39.15;17.60;;;;;;;18.89;39.50;101733.19;8231647;28;20042;-66
2022/03/24 14:04:17;;;;;;;31.17;16.02;;;;;;;19.23;40.83;101732.13;8233495;28;20116;-66
2022/03/24 14:08:30;;;;;;;30.65;16.30;;;;;;;19.14;41.00;101735.88;8242811;28;20062;-66
2022/03/24 14:12:31;;;;;;;30.70;15.52;;;;;;;18.72;39.26;101729.50;8234595;28;20038;-66
2022/03/24 14:20:47;;;;;;;28.95;14.73;;;;;;;19.16;42.39;101720.06;8374839;27;20412;-65
2022/03/24 14:24:48;;;;;;;33.72;16.65;;;;;;;19.20;41.62;101706.91;8343437;28;20056;-65
2022/03/24 14:28:49;;;;;;;29.70;15.85;;;;;;;19.21;41.33;101712.22;8338422;28;20523;-65
2022/03/24 14:32:50;;;;;;;36.90;17.00;;;;;;;18.72;39.83;101713.06;8329793;28;20465;-65
2022/03/24 14:36:51;;;;;;;37.20;16.58;;;;;;;18.76;40.56;101703.47;8331621;28;20155;-65
2022/03/24 14:40:52;;;;;;;36.85;17.65;;;;;;;18.91;42.18;101706.47;8328263;28;20037;-65
2022/03/24 14:44:52;;;;;;;38.30;16.77;;;;;;;18.99;40.75;101696.41;8331481;28;20060;-65
2022/03/24 14:48:53;;;;;;;35.55;17.27;;;;;;;19.00;41.33;101692.63;8361324;28;20525;-65
2022/03/24 14:52:54;;;;;;;42.38;16.58;;;;;;;18.92;40.09;101689.88;8331228;28;20473;-65
2022/03/24 14:56:54;;;;;;;40.90;18.87;;;;;;;18.64;40.91;101685.66;8325610;28;20041;-65
2022/03/24 15:00:54;;;;;;;39.70;18.23;;;;;;;18.65;42.95;101684.63;8332345;28;20569;-65
2022/03/24 15:04:55;;;;;;;40.63;18.15;;;;;;;18.64;41.52;101671.94;8329645;28;20271;-65
2022/03/24 15:08:55;;;;;;;42.53;18.27;;;;;;;18.66;41.70;101686.31;8365243;28;20044;-65
2022/03/24 15:12:56;;;;;;;36.50;17.15;;;;;;;18.47;41.07;101675.63;8330479;28;20072;-65
2022/03/24 15:16:57;;;;;;;32.92;17.17;;;;;;;18.51;42.65;101666.03;8319854;28;20087;-65
2022/03/24 15:20:59;;;;;;;32.92;16.50;;;;;;;18.52;42.06;101670.53;8331008;28;20057;-65
2022/03/24 15:25:00;;;;;;;35.40;17.20;;;;;;;18.50;41.41;101669.81;8322698;28;20045;-65
2022/03/24 15:29:01;;;;;;;35.03;18.67;;;;;;;18.30;39.38;101665.53;8325381;28;20656;-65
2022/03/24 15:33:01;;;;;;;39.15;17.40;;;;;;;18.28;42.01;101670.34;8306177;28;20091;-65
2022/03/24 15:37:02;;;;;;;35.05;17.83;;;;;;;18.30;40.80;101673.75;8304072;28;20046;-65
2022/03/24 15:41:03;;;;;;;38.33;18.23;;;;;;;18.34;41.73;101664.22;8322104;28;20052;-66
2022/03/24 15:45:04;;;;;;;42.47;20.75;;;;;;;18.24;42.60;101668.94;8309206;28;20132;-66
2022/03/24 15:49:04;;;;;;;39.63;20.45;;;;;;;18.13;42.11;101671.09;8309276;28;20064;-66
2022/03/24 15:53:05;;;;;;;36.85;20.58;;;;;;;18.19;42.46;101668.59;8310052;28;20116;-66
2022/03/24 15:57:07;;;;;;;40.75;20.30;;;;;;;18.14;42.17;101665.47;8306740;28;20037;-66
2022/03/24 16:01:08;;;;;;;44.40;22.55;;;;;;;18.08;41.64;101674.31;8309989;28;20507;-66
2022/03/24 16:05:11;;;;;;;41.72;22.05;;;;;;;18.00;41.63;101671.53;8305647;28;20045;-66
2022/03/24 16:09:11;;;;;;;44.50;23.48;;;;;;;18.12;41.35;101670.25;8311697;28;20598;-66
2022/03/24 16:13:12;;;;;;;50.22;24.52;;;;;;;17.86;41.91;101663.03;8338961;28;20144;-66
2022/03/24 16:17:13;;;;;;;46.08;24.10;;;;;;;17.68;42.97;101659.50;8302649;28;20053;-65
2022/03/24 16:21:14;;;;;;;42.60;23.63;;;;;;;17.60;42.97;101669.31;8307562;28;20052;-65
2022/03/24 16:25:14;;;;;;;45.15;22.85;;;;;;;17.43;43.98;101669.34;8305763;28;20041;-66
2022/03/24 16:29:15;;;;;;;43.35;23.45;;;;;;;17.42;42.98;101664.88;8301707;28;20051;-66
2022/03/24 16:33:16;;;;;;;49.33;22.95;;;;;;;17.34;42.91;101670.25;8290356;28;20045;-66
2022/03/24 16:37:16;;;;;;;45.90;22.75;;;;;;;17.27;43.76;101666.41;8297871;28;20102;-66
2022/03/24 16:41:17;;;;;;;45.50;23.95;;;;;;;17.14;43.09;101671.41;8316960;28;20494;-66
2022/03/24 16:45:17;;;;;;;49.38;24.90;;;;;;;17.23;42.74;101670.50;8298277;28;20056;-66
2022/03/24 16:49:18;;;;;;;48.83;25.15;;;;;;;17.01;44.08;101665.44;8333822;28;20042;-66
2022/03/24 16:53:18;;;;;;;47.90;25.60;;;;;;;17.09;42.68;101673.75;8312240;28;20048;-66
2022/03/24 16:57:18;;;;;;;51.42;26.27;;;;;;;16.94;43.21;101673.41;8303598;28;20287;-66
2022/03/24 17:01:19;;;;;;;47.33;25.35;;;;;;;17.02;42.66;101678.13;8305525;28;20402;-66
2022/03/24 17:05:22;;;;;;;52.85;26.77;;;;;;;16.99;42.43;101673.78;8312010;28;20567;-65
2022/03/24 17:09:22;;;;;;;48.50;27.25;;;;;;;16.99;42.50;101678.41;8342062;28;20466;-63
2022/03/24 17:13:23;;;;;;;56.90;29.70;;;;;;;16.96;41.74;101678.72;8301221;28;20581;-63
2022/03/24 17:17:23;;;;;;;53.60;29.75;;;;;;;16.89;41.85;101683.06;8313838;28;20045;-63
2022/03/24 17:21:24;;;;;;;56.45;29.13;;;;;;;16.78;41.57;101683.28;8321827;28;20555;-63
2022/03/24 17:25:24;;;;;;;53.45;27.73;;;;;;;16.62;41.59;101681.19;8311717;28;20049;-63
2022/03/24 17:29:25;;;;;;;61.25;29.08;;;;;;;16.52;41.81;101687.72;8338142;28;20130;-63
2022/03/24 17:33:25;;;;;;;51.70;27.98;;;;;;;16.40;41.74;101692.47;8311588;28;20037;-63
2022/03/24 17:37:26;;;;;;;51.22;28.00;;;;;;;16.33;42.03;101693.22;8311067;28;20044;-63
2022/03/24 17:41:26;;;;;;;55.40;28.00;;;;;;;16.20;42.29;101698.16;8313186;28;20119;-63
2022/03/24 17:45:28;;;;;;;54.75;28.20;;;;;;;15.99;42.96;101702.94;8313355;28;20128;-63
2022/03/24 17:49:28;;;;;;;53.72;29.10;;;;;;;15.84;43.03;101705.25;8312985;28;20045;-63
2022/03/24 17:53:29;;;;;;;57.80;28.58;;;;;;;15.59;44.26;101712.16;8312967;28;20045;-63
2022/03/24 17:57:29;;;;;;;65.47;28.87;;;;;;;15.20;44.72;101704.06;8311693;28;20041;-63
2022/03/24 18:01:30;;;;;;;52.55;27.75;;;;;;;14.92;45.63;101702.16;8306037;28;20740;-63
2022/03/24 18:05:31;;;;;;;55.72;28.10;;;;;;;14.69;46.38;101706.97;8290476;28;20834;-63
2022/03/24 18:09:31;;;;;;;55.58;29.30;;;;;;;14.33;47.96;101718.41;8305515;28;20049;-63
2022/03/24 18:13:32;;;;;;;56.17;28.65;;;;;;;14.00;49.45;101715.03;8306864;28;20394;-63
2022/03/24 18:17:32;;;;;;;56.17;29.17;;;;;;;13.70;49.68;101718.53;8300856;28;20049;-63
2022/03/24 18:21:32;;;;;;;58.50;29.85;;;;;;;13.57;49.66;101723.28;8307278;28;20080;-63
2022/03/24 18:25:33;;;;;;;52.33;28.23;;;;;;;13.50;50.02;101722.09;8306154;28;20413;-63
2022/03/24 18:29:33;;;;;;;54.97;27.60;;;;;;;13.49;50.34;101723.09;8305526;28;20315;-63
2022/03/24 18:33:34;;;;;;;57.45;29.20;;;;;;;13.58;50.37;101731.31;8321029;28;20573;-63
2022/03/24 18:37:35;;;;;;;62.10;32.47;;;;;;;13.21;52.29;101743.53;8303797;28;20049;-63
2022/03/24 18:41:35;;;;;;;79.85;35.65;;;;;;;12.94;53.38;101734.06;8307202;28;20406;-64